| time (UTC) | temp C | wind direction | speed KPH | gust KPH | rain 1hr cm | rain 24hr cm | rain mn cm | humidity % | barometer mb |
| 20260504160325 | 21 | 348 | 1.6 | 12.9 | 0.00 | 0.00 | 0.00 | 50 | 1018.2 |
| 20260504140420 | 12 | 296 | 0.0 | 0.0 | 0.00 | 0.00 | 0.00 | 87 | 1018.9 |
| 20260504130803 | 8 | 23 | 0.0 | 0.0 | 0.00 | 0.00 | 0.00 | 94 | 1019.0 |
| 20260504130259 | 8 | 23 | 0.0 | 0.0 | 0.00 | 0.00 | 0.00 | 94 | 1019.0 |
| 20260504120224 | 6 | 23 | 0.0 | 0.0 | 0.00 | 0.00 | 0.00 | 93 | 1019.1 |
| 20260504110503 | 5 | 249 | 0.0 | 0.0 | 0.00 | 0.00 | 0.00 | 92 | 1018.7 |
| 20260504100336 | 5 | 249 | 0.0 | 0.0 | 0.00 | 0.00 | 0.00 | 91 | 1018.4 |
| 20260504082001 | 6 | 249 | 0.0 | 0.0 | 0.00 | 0.00 | 0.00 | 90 | 1018.2 |
| 20260504080155 | 6 | 249 | 0.0 | 0.0 | 0.00 | 0.00 | 0.00 | 90 | 1018.1 |
| 20260504060221 | 7 | 249 | 0.0 | 0.0 | 0.00 | 0.00 | 0.00 | 88 | 1019.1 |
| 20260504050419 | 8 | 249 | 0.0 | 0.0 | 0.00 | 0.00 | 0.00 | 85 | 1018.8 |
| 20260504045304 | 8 | 249 | 0.0 | 0.0 | 0.00 | 0.00 | 0.00 | 84 | 1018.9 |
| 20260504044805 | 8 | 249 | 0.0 | 0.0 | 0.00 | 0.00 | 0.00 | 84 | 1018.9 |
| 20260504044313 | 8 | 249 | 0.0 | 0.0 | 0.00 | 0.00 | 0.00 | 83 | 1018.9 |
| 20260504043146 | 8 | 249 | 0.0 | 0.0 | 0.00 | 0.00 | 0.00 | 84 | 1019.0 |
| 20260504042638 | 8 | 249 | 0.0 | 0.0 | 0.00 | 0.00 | 0.00 | 84 | 1019.2 |
| 20260504042120 | 8 | 249 | 0.0 | 0.0 | 0.00 | 0.00 | 0.00 | 84 | 1019.4 |
| 20260504041612 | 8 | 249 | 0.0 | 0.0 | 0.00 | 0.00 | 0.00 | 84 | 1019.5 |
| 20260504041104 | 8 | 249 | 0.0 | 0.0 | 0.00 | 0.00 | 0.00 | 83 | 1019.4 |
| 20260504040554 | 8 | 249 | 0.0 | 0.0 | 0.00 | 0.00 | 0.00 | 83 | 1019.3 |
| 20260504040057 | 9 | 249 | 0.0 | 0.0 | 0.00 | 0.00 | 0.00 | 83 | 1019.3 |
| 20260504034927 | 9 | 249 | 0.0 | 0.0 | 0.00 | 0.00 | 0.00 | 82 | 1019.3 |
| 20260504034434 | 9 | 249 | 0.0 | 0.0 | 0.00 | 0.00 | 0.00 | 82 | 1019.3 |
| 20260504033941 | 9 | 249 | 0.0 | 0.0 | 0.00 | 0.00 | 0.00 | 82 | 1019.4 |
| 20260504033442 | 9 | 249 | 0.0 | 0.0 | 0.00 | 0.00 | 0.00 | 81 | 1019.4 |
| 20260504032947 | 10 | 249 | 0.0 | 0.0 | 0.00 | 0.00 | 0.00 | 81 | 1019.3 |
| 20260504032436 | 10 | 249 | 0.0 | 0.0 | 0.00 | 0.00 | 0.00 | 80 | 1019.2 |
| 20260504031323 | 10 | 249 | 0.0 | 0.0 | 0.00 | 0.00 | 0.00 | 79 | 1019.1 |
| 20260504030205 | 10 | 249 | 0.0 | 0.0 | 0.00 | 0.00 | 0.00 | 78 | 1019.1 |
| 20260504025654 | 11 | 249 | 0.0 | 0.0 | 0.00 | 0.00 | 0.00 | 77 | 1019.1 |
| 20260504025144 | 11 | 249 | 0.0 | 0.0 | 0.00 | 0.00 | 0.00 | 74 | 1019.2 |
| 20260504024627 | 11 | 249 | 0.0 | 0.0 | 0.00 | 0.00 | 0.00 | 75 | 1019.2 |
| 20260504024133 | 11 | 249 | 0.0 | 0.0 | 0.00 | 0.00 | 0.00 | 72 | 1019.2 |
| 20260504023641 | 11 | 249 | 0.0 | 0.0 | 0.00 | 0.00 | 0.00 | 73 | 1019.2 |
| 20260504023141 | 11 | 249 | 0.0 | 0.0 | 0.00 | 0.00 | 0.00 | 73 | 1019.0 |
| 20260504022638 | 11 | 249 | 0.0 | 0.0 | 0.00 | 0.00 | 0.00 | 71 | 1019.0 |
| 20260504022143 | 12 | 249 | 0.0 | 0.0 | 0.00 | 0.00 | 0.00 | 69 | 1019.0 |
| 20260504021629 | 12 | 249 | 0.0 | 0.0 | 0.00 | 0.00 | 0.00 | 67 | 1019.0 |
| 20260504015916 | 12 | 249 | 0.0 | 0.0 | 0.00 | 0.00 | 0.00 | 67 | 1018.9 |
| 20260504015408 | 12 | 249 | 0.0 | 0.0 | 0.00 | 0.00 | 0.00 | 65 | 1018.8 |
| 20260504014230 | 13 | 249 | 0.0 | 0.0 | 0.00 | 0.00 | 0.00 | 66 | 1018.7 |
| 20260504013721 | 13 | 249 | 0.0 | 0.0 | 0.00 | 0.00 | 0.00 | 64 | 1018.6 |
| 20260504013230 | 13 | 249 | 0.0 | 0.0 | 0.00 | 0.00 | 0.00 | 63 | 1018.6 |
| 20260504012731 | 13 | 249 | 0.0 | 0.0 | 0.00 | 0.00 | 0.00 | 63 | 1018.4 |
| 20260504012239 | 14 | 249 | 0.0 | 0.0 | 0.00 | 0.00 | 0.00 | 62 | 1018.4 |
| 20260504011122 | 15 | 249 | 0.0 | 0.0 | 0.00 | 0.00 | 0.00 | 59 | 1018.3 |
| 20260504010614 | 15 | 249 | 0.0 | 0.0 | 0.00 | 0.00 | 0.00 | 59 | 1018.3 |
| 20260504005511 | 16 | 249 | 0.0 | 0.0 | 0.00 | 0.00 | 0.00 | 56 | 1018.3 |
| 20260504005021 | 16 | 249 | 0.0 | 0.0 | 0.00 | 0.00 | 0.00 | 57 | 1018.3 |
| 20260504004515 | 16 | 249 | 0.0 | 0.0 | 0.00 | 0.00 | 0.00 | 57 | 1018.3 |
| 20260504004021 | 17 | 249 | 0.0 | 0.0 | 0.00 | 0.00 | 0.00 | 54 | 1018.2 |
| 20260504003511 | 17 | 249 | 0.0 | 0.0 | 0.00 | 0.00 | 0.00 | 52 | 1018.2 |
| 20260504003003 | 17 | 249 | 0.0 | 0.0 | 0.00 | 0.00 | 0.00 | 52 | 1018.1 |
| 20260504002448 | 18 | 249 | 0.0 | 0.0 | 0.00 | 0.00 | 0.00 | 52 | 1018.1 |
| 20260504001334 | 18 | 274 | 0.0 | 4.8 | 0.00 | 0.00 | 0.00 | 46 | 1018.0 |
| 20260504000839 | 18 | 274 | 0.0 | 4.8 | 0.00 | 0.00 | 0.00 | 43 | 1018.0 |
| 20260504000337 | 19 | 274 | 0.0 | 4.8 | 0.00 | 0.00 | 0.00 | 44 | 1018.0 |
| 20260503235844 | 19 | 258 | 0.0 | 1.6 | 0.00 | 0.00 | 0.00 | 45 | 1018.0 |
| 20260503235344 | 19 | 258 | 0.0 | 3.2 | 0.00 | 0.00 | 0.00 | 42 | 1017.9 |
| 20260503234844 | 19 | 310 | 0.0 | 4.8 | 0.00 | 0.00 | 0.00 | 43 | 1017.9 |
| 20260503234339 | 19 | 228 | 1.6 | 4.8 | 0.00 | 0.00 | 0.00 | 43 | 1017.9 |
| 20260503233843 | 20 | 287 | 1.6 | 9.7 | 0.00 | 0.00 | 0.00 | 43 | 1017.9 |
| 20260503233327 | 20 | 285 | 1.6 | 9.7 | 0.00 | 0.00 | 0.00 | 45 | 1017.9 |
| 20260503232824 | 20 | 222 | 1.6 | 9.7 | 0.00 | 0.00 | 0.00 | 43 | 1017.9 |
| 20260503232311 | 20 | 199 | 1.6 | 9.7 | 0.00 | 0.00 | 0.00 | 43 | 1017.8 |
| 20260503231146 | 20 | 289 | 1.6 | 8.0 | 0.00 | 0.00 | 0.00 | 43 | 1018.0 |
| 20260503230643 | 20 | 226 | 3.2 | 8.0 | 0.00 | 0.00 | 0.00 | 41 | 1018.0 |
| 20260503222922 | 21 | 292 | 0.0 | 4.8 | 0.00 | 0.00 | 0.00 | 42 | 1018.2 |
| 20260503222430 | 20 | 210 | 0.0 | 11.3 | 0.00 | 0.00 | 0.00 | 42 | 1018.2 |
| 20260503221918 | 21 | 210 | 1.6 | 11.3 | 0.00 | 0.00 | 0.00 | 42 | 1018.2 |
| 20260503221422 | 21 | 222 | 1.6 | 11.3 | 0.00 | 0.00 | 0.00 | 40 | 1018.3 |
| 20260503220910 | 21 | 314 | 3.2 | 11.3 | 0.00 | 0.00 | 0.00 | 41 | 1018.3 |
| 20260503220414 | 21 | 299 | 1.6 | 9.7 | 0.00 | 0.00 | 0.00 | 41 | 1018.4 |
| 20260503215917 | 21 | 226 | 1.6 | 16.1 | 0.00 | 0.00 | 0.00 | 42 | 1018.3 |
| 20260503214130 | 21 | 209 | 1.6 | 9.7 | 0.00 | 0.00 | 0.00 | 41 | 1018.4 |
| 20260503213627 | 21 | 235 | 1.6 | 9.7 | 0.00 | 0.00 | 0.00 | 43 | 1018.5 |
| 20260503213121 | 21 | 296 | 0.0 | 9.7 | 0.00 | 0.00 | 0.00 | 43 | 1018.4 |
| 20260503212612 | 21 | 266 | 0.0 | 11.3 | 0.00 | 0.00 | 0.00 | 38 | 1018.5 |
| 20260503212109 | 21 | 179 | 1.6 | 11.3 | 0.00 | 0.00 | 0.00 | 40 | 1018.6 |
| 20260503211559 | 21 | 218 | 1.6 | 11.3 | 0.00 | 0.00 | 0.00 | 40 | 1018.5 |
| 20260503211047 | 21 | 251 | 1.6 | 11.3 | 0.00 | 0.00 | 0.00 | 41 | 1018.6 |
| 20260503210545 | 21 | 308 | 1.6 | 11.3 | 0.00 | 0.00 | 0.00 | 41 | 1018.7 |
| 20260503205359 | 21 | 268 | 1.6 | 9.7 | 0.00 | 0.00 | 0.00 | 40 | 1018.8 |
| 20260503204859 | 21 | 22 | 1.6 | 9.7 | 0.00 | 0.00 | 0.00 | 40 | 1018.8 |
| 20260503204353 | 21 | 337 | 1.6 | 9.7 | 0.00 | 0.00 | 0.00 | 45 | 1018.9 |
| 20260503203849 | 21 | 336 | 1.6 | 9.7 | 0.00 | 0.00 | 0.00 | 40 | 1019.0 |
| 20260503203330 | 21 | 253 | 3.2 | 9.7 | 0.00 | 0.00 | 0.00 | 41 | 1019.1 |
| 20260503202837 | 21 | 8 | 1.6 | 8.0 | 0.00 | 0.00 | 0.00 | 42 | 1019.2 |
| 20260503202332 | 21 | 233 | 0.0 | 11.3 | 0.00 | 0.00 | 0.00 | 42 | 1019.2 |
| 20260503201837 | 21 | 317 | 1.6 | 11.3 | 0.00 | 0.00 | 0.00 | 41 | 1019.3 |
| 20260503201326 | 21 | 297 | 3.2 | 11.3 | 0.00 | 0.00 | 0.00 | 38 | 1019.4 |
| 20260503200828 | 21 | 313 | 3.2 | 11.3 | 0.00 | 0.00 | 0.00 | 42 | 1019.6 |
| 20260503200329 | 21 | 219 | 1.6 | 9.7 | 0.00 | 0.00 | 0.00 | 39 | 1019.7 |
| 20260503195813 | 21 | 300 | 0.0 | 4.8 | 0.00 | 0.00 | 0.00 | 40 | 1019.6 |
| 20260503195304 | 21 | 276 | 1.6 | 4.8 | 0.00 | 0.00 | 0.00 | 40 | 1019.8 |
| 20260503194758 | 21 | 302 | 1.6 | 4.8 | 0.00 | 0.00 | 0.00 | 40 | 1019.9 |
| 20260503194258 | 21 | 318 | 1.6 | 8.0 | 0.00 | 0.00 | 0.00 | 43 | 1019.9 |
| 20260503193759 | 21 | 314 | 1.6 | 8.0 | 0.00 | 0.00 | 0.00 | 40 | 1020.0 |
| 20260503193247 | 21 | 321 | 1.6 | 8.0 | 0.00 | 0.00 | 0.00 | 42 | 1020.1 |
| 20260503192740 | 21 | 321 | 1.6 | 8.0 | 0.00 | 0.00 | 0.00 | 46 | 1020.3 |
| 20260503192226 | 21 | 197 | 1.6 | 6.4 | 0.00 | 0.00 | 0.00 | 39 | 1020.2 |
| 20260503191710 | 21 | 203 | 1.6 | 4.8 | 0.00 | 0.00 | 0.00 | 44 | 1020.4 |
| 20260503191202 | 20 | 305 | 1.6 | 4.8 | 0.00 | 0.00 | 0.00 | 42 | 1020.5 |
| 20260503190711 | 21 | 332 | 1.6 | 12.9 | 0.00 | 0.00 | 0.00 | 41 | 1020.5 |
| 20260503190200 | 20 | 239 | 1.6 | 12.9 | 0.00 | 0.00 | 0.00 | 40 | 1020.5 |
| 20260503185708 | 20 | 298 | 3.2 | 12.9 | 0.00 | 0.00 | 0.00 | 43 | 1020.6 |
| 20260503183342 | 20 | 330 | 1.6 | 6.4 | 0.00 | 0.00 | 0.00 | 42 | 1020.9 |
| 20260503182836 | 20 | 214 | 1.6 | 6.4 | 0.00 | 0.00 | 0.00 | 41 | 1020.9 |
| 20260503182339 | 20 | 15 | 1.6 | 4.8 | 0.00 | 0.00 | 0.00 | 41 | 1020.9 |
| 20260503181842 | 20 | 316 | 0.0 | 3.2 | 0.00 | 0.00 | 0.00 | 46 | 1021.0 |
| 20260503181338 | 20 | 309 | 0.0 | 3.2 | 0.00 | 0.00 | 0.00 | 46 | 1021.1 |
| 20260503180825 | 20 | 323 | 0.0 | 9.7 | 0.00 | 0.00 | 0.00 | 44 | 1021.1 |
| 20260503175103 | 19 | 205 | 0.0 | 12.9 | 0.00 | 0.00 | 0.00 | 42 | 1021.3 |
| 20260503174612 | 19 | 156 | 1.6 | 12.9 | 0.00 | 0.00 | 0.00 | 45 | 1021.3 |
| 20260503174107 | 19 | 295 | 3.2 | 12.9 | 0.00 | 0.00 | 0.00 | 44 | 1021.4 |
| 20260503173603 | 19 | 211 | 3.2 | 11.3 | 0.00 | 0.00 | 0.00 | 42 | 1021.5 |
| 20260503173105 | 19 | 39 | 3.2 | 11.3 | 0.00 | 0.00 | 0.00 | 40 | 1021.5 |
| 20260503172557 | 18 | 295 | 3.2 | 11.3 | 0.00 | 0.00 | 0.00 | 44 | 1021.5 |
| 20260503172056 | 18 | 200 | 1.6 | 11.3 | 0.00 | 0.00 | 0.00 | 48 | 1021.6 |
| 20260503171556 | 18 | 233 | 1.6 | 9.7 | 0.00 | 0.00 | 0.00 | 46 | 1021.6 |
| 20260503171100 | 18 | 225 | 1.6 | 11.3 | 0.00 | 0.00 | 0.00 | 45 | 1021.7 |
| 20260503170602 | 18 | 221 | 1.6 | 11.3 | 0.00 | 0.00 | 0.00 | 48 | 1021.6 |